Time;durP1;ratioP1;P1;durP2;ratioP2;P2;SDS_P1;SDS_P2;PMS_P1;PMS_P2;Temp;Humidity;BMP_temperature;BMP_pressure;BME280_temperature;BME280_humidity;BME280_pressure;Samples;Min_cycle;Max_cycle;Signal;HPM_P1;HPM_P2
2021/07/16 00:01:25;;;;;;;2.05;1.02;;;;;;;;;;6246212;23;20014;-73
2021/07/16 00:03:51;;;;;;;3.22;1.27;;;;;;;;;;6246632;23;20020;-72
2021/07/16 00:06:18;;;;;;;4.25;1.23;;;;;;;;;;6244671;23;20461;-71
2021/07/16 00:08:44;;;;;;;5.50;1.13;;;;;;;;;;6244702;23;20000;-73
2021/07/16 00:11:10;;;;;;;2.33;1.20;;;;;;;;;;6246815;23;20000;-72
2021/07/16 00:13:37;;;;;;;3.10;1.20;;;;;;;;;;6244667;23;20015;-73
2021/07/16 00:16:07;;;;;;;1.98;1.10;;;;;;;;;;6246173;23;20008;-73
2021/07/16 00:18:33;;;;;;;2.83;1.50;;;;;;;;;;6245669;23;20004;-72
2021/07/16 00:21:01;;;;;;;3.72;1.50;;;;;;;;;;6246652;23;20004;-72
2021/07/16 00:23:28;;;;;;;2.05;1.23;;;;;;;;;;6246671;23;20380;-72
2021/07/16 00:25:55;;;;;;;1.92;1.10;;;;;;;;;;6248184;23;20000;-69
2021/07/16 00:28:21;;;;;;;4.57;1.33;;;;;;;;;;6246654;23;20057;-71
2021/07/16 00:30:48;;;;;;;3.42;1.33;;;;;;;;;;6248014;23;20001;-71
2021/07/16 00:33:14;;;;;;;3.13;1.10;;;;;;;;;;6248455;23;20008;-71
2021/07/16 00:35:40;;;;;;;2.70;1.42;;;;;;;;;;6247954;23;20016;-71
2021/07/16 00:38:07;;;;;;;2.30;1.20;;;;;;;;;;6248020;23;20011;-73
2021/07/16 00:40:33;;;;;;;5.22;1.20;;;;;;;;;;6247948;23;20004;-72
2021/07/16 00:43:00;;;;;;;3.60;1.33;;;;;;;;;;6247937;23;20012;-72
2021/07/16 00:45:26;;;;;;;2.03;1.13;;;;;;;;;;6248039;23;20003;-72
2021/07/16 00:47:53;;;;;;;4.57;1.45;;;;;;;;;;6247989;23;20004;-72
2021/07/16 00:50:21;;;;;;;2.55;1.40;;;;;;;;;;6248317;23;20095;-72
2021/07/16 00:52:48;;;;;;;2.67;1.40;;;;;;;;;;6221014;23;20044;-72
2021/07/16 00:55:15;;;;;;;4.47;1.30;;;;;;;;;;6247881;23;20007;-70
2021/07/16 00:57:42;;;;;;;2.92;1.55;;;;;;;;;;6221097;23;20031;-72
2021/07/16 01:00:09;;;;;;;2.35;1.20;;;;;;;;;;6248095;23;20434;-71
2021/07/16 01:02:36;;;;;;;2.63;1.42;;;;;;;;;;6196126;23;20122;-73
2021/07/16 01:05:03;;;;;;;9.15;1.35;;;;;;;;;;6220926;23;20330;-72
2021/07/16 01:07:30;;;;;;;2.90;1.67;;;;;;;;;;6247955;23;20007;-72
2021/07/16 01:09:56;;;;;;;2.20;1.20;;;;;;;;;;6220978;23;20007;-72
2021/07/16 01:12:23;;;;;;;3.08;1.30;;;;;;;;;;6221038;23;20012;-71
2021/07/16 01:14:50;;;;;;;4.38;1.48;;;;;;;;;;6247651;23;20004;-70
2021/07/16 01:17:16;;;;;;;5.60;1.73;;;;;;;;;;6248035;23;20015;-70
2021/07/16 01:20:04;;;;;;;2.63;1.45;;;;;;;;;;6220781;23;20004;-71
2021/07/16 01:22:31;;;;;;;3.67;2.35;;;;;;;;;;6220763;23;20023;-72
2021/07/16 01:24:58;;;;;;;4.10;1.80;;;;;;;;;;6248263;23;20421;-72
2021/07/16 01:27:24;;;;;;;3.78;1.85;;;;;;;;;;6247407;23;20004;-72
2021/07/16 01:29:51;;;;;;;4.05;1.60;;;;;;;;;;6220204;23;20000;-72
2021/07/16 01:32:17;;;;;;;3.00;1.42;;;;;;;;;;6247727;23;20039;-68
2021/07/16 01:34:44;;;;;;;3.80;1.60;;;;;;;;;;6225161;23;20012;-73
2021/07/16 01:37:11;;;;;;;5.22;2.08;;;;;;;;;;6247031;23;20011;-71
2021/07/16 01:39:39;;;;;;;3.05;1.75;;;;;;;;;;6247512;23;20000;-71
2021/07/16 01:42:06;;;;;;;3.92;2.00;;;;;;;;;;6245975;23;20043;-71
2021/07/16 01:44:33;;;;;;;3.70;1.85;;;;;;;;;;6248086;23;20413;-70
2021/07/16 01:46:59;;;;;;;3.10;1.85;;;;;;;;;;6248081;23;20004;-70
2021/07/16 01:49:26;;;;;;;7.25;2.17;;;;;;;;;;6245917;23;20000;-71
2021/07/16 01:51:52;;;;;;;4.70;2.10;;;;;;;;;;6247271;23;20445;-70
2021/07/16 01:54:18;;;;;;;6.95;1.88;;;;;;;;;;6247373;23;19997;-69
2021/07/16 01:56:45;;;;;;;3.78;1.90;;;;;;;;;;6245817;23;20130;-73
2021/07/16 01:59:12;;;;;;;3.75;1.98;;;;;;;;;;6247642;23;20058;-70
2021/07/16 02:01:38;;;;;;;5.93;1.80;;;;;;;;;;6245705;23;20418;-71
2021/07/16 02:04:05;;;;;;;5.13;2.22;;;;;;;;;;6245781;23;20443;-71
2021/07/16 02:06:31;;;;;;;4.32;1.90;;;;;;;;;;6247200;23;20425;-72
2021/07/16 02:08:58;;;;;;;2.55;1.60;;;;;;;;;;6247265;23;20000;-72
2021/07/16 02:11:24;;;;;;;4.20;2.15;;;;;;;;;;6247058;23;20042;-72
2021/07/16 02:13:51;;;;;;;4.35;2.10;;;;;;;;;;6247193;23;19996;-72
2021/07/16 02:16:18;;;;;;;5.90;2.00;;;;;;;;;;6245628;23;20008;-72
2021/07/16 02:19:02;;;;;;;3.28;1.90;;;;;;;;;;6247104;23;20004;-72
2021/07/16 02:21:28;;;;;;;3.05;1.90;;;;;;;;;;6245589;23;20169;-71
2021/07/16 02:23:55;;;;;;;4.97;2.53;;;;;;;;;;6245551;23;20050;-72
2021/07/16 02:26:21;;;;;;;3.17;1.77;;;;;;;;;;6247016;23;20456;-72
2021/07/16 02:28:48;;;;;;;4.05;2.03;;;;;;;;;;6247439;23;20420;-72
2021/07/16 02:31:14;;;;;;;5.32;1.95;;;;;;;;;;6245360;23;20032;-72
2021/07/16 02:33:41;;;;;;;3.75;1.98;;;;;;;;;;6245439;23;20024;-72
2021/07/16 02:36:08;;;;;;;3.55;1.95;;;;;;;;;;6246814;23;20023;-70
2021/07/16 02:38:35;;;;;;;5.68;2.20;;;;;;;;;;6246930;23;20050;-72
2021/07/16 02:41:01;;;;;;;4.85;2.10;;;;;;;;;;6246746;23;20418;-72
2021/07/16 02:43:28;;;;;;;3.28;2.13;;;;;;;;;;6247611;23;20007;-72
2021/07/16 02:45:55;;;;;;;3.75;2.00;;;;;;;;;;6246705;23;20011;-72
2021/07/16 02:48:21;;;;;;;5.55;2.20;;;;;;;;;;6247178;23;20004;-72
2021/07/16 02:50:48;;;;;;;3.72;2.20;;;;;;;;;;6246607;23;20000;-72
2021/07/16 02:53:20;;;;;;;4.55;2.38;;;;;;;;;;6246637;23;20054;-73
2021/07/16 02:55:47;;;;;;;3.83;2.07;;;;;;;;;;6220057;23;20007;-72
2021/07/16 02:58:13;;;;;;;4.25;2.25;;;;;;;;;;6219816;23;20330;-72
2021/07/16 03:00:39;;;;;;;3.42;2.00;;;;;;;;;;6219769;23;20008;-72
2021/07/16 03:03:05;;;;;;;5.38;2.33;;;;;;;;;;6246970;23;20365;-73
2021/07/16 03:05:35;;;;;;;4.75;2.15;;;;;;;;;;6246651;23;20035;-73
2021/07/16 03:08:01;;;;;;;4.95;2.38;;;;;;;;;;6219702;23;20007;-72
2021/07/16 03:10:29;;;;;;;4.00;2.22;;;;;;;;;;6246649;23;20046;-72
2021/07/16 03:12:57;;;;;;;3.83;2.00;;;;;;;;;;6219649;23;20012;-73
2021/07/16 03:15:24;;;;;;;5.40;2.10;;;;;;;;;;6219686;23;20011;-73
2021/07/16 03:17:51;;;;;;;4.55;2.33;;;;;;;;;;6246767;23;20303;-72
2021/07/16 03:20:20;;;;;;;4.82;2.55;;;;;;;;;;6246368;23;20019;-72
2021/07/16 03:22:46;;;;;;;5.40;2.33;;;;;;;;;;6247191;23;20000;-71
2021/07/16 03:25:14;;;;;;;8.02;2.55;;;;;;;;;;6247194;23;19996;-72
2021/07/16 03:27:41;;;;;;;4.15;2.17;;;;;;;;;;6219633;23;20464;-72
2021/07/16 03:30:12;;;;;;;5.93;2.40;;;;;;;;;;6219682;23;20006;-72
2021/07/16 03:32:38;;;;;;;5.32;2.33;;;;;;;;;;6219500;23;20016;-72
2021/07/16 03:35:06;;;;;;;4.32;2.38;;;;;;;;;;6228215;23;20020;-72
2021/07/16 03:37:32;;;;;;;6.47;2.50;;;;;;;;;;6246441;23;20426;-70
2021/07/16 03:39:58;;;;;;;4.32;2.40;;;;;;;;;;6246443;23;20003;-72
2021/07/16 03:42:25;;;;;;;6.47;2.97;;;;;;;;;;6246423;23;20004;-72
2021/07/16 03:44:51;;;;;;;5.15;2.63;;;;;;;;;;6246257;23;20483;-72
2021/07/16 03:47:17;;;;;;;3.95;2.25;;;;;;;;;;6246708;23;20015;-72
2021/07/16 03:49:45;;;;;;;7.13;2.83;;;;;;;;;;6246439;23;20004;-72
2021/07/16 03:52:11;;;;;;;4.35;2.28;;;;;;;;;;6244507;23;20051;-71
2021/07/16 03:54:38;;;;;;;6.72;2.65;;;;;;;;;;6244745;23;20011;-72
2021/07/16 03:57:05;;;;;;;5.20;2.85;;;;;;;;;;6246270;23;20075;-71
2021/07/16 03:59:32;;;;;;;6.28;2.40;;;;;;;;;;6244682;23;20023;-72
2021/07/16 04:01:58;;;;;;;7.97;2.85;;;;;;;;;;6244653;23;20365;-71
2021/07/16 04:04:25;;;;;;;5.88;2.90;;;;;;;;;;6246181;23;20000;-71
2021/07/16 04:06:55;;;;;;;5.38;2.20;;;;;;;;;;6246169;23;20010;-71
2021/07/16 04:09:30;;;;;;;4.10;2.45;;;;;;;;;;6246239;23;20011;-72
2021/07/16 04:12:09;;;;;;;3.72;2.33;;;;;;;;;;6244649;23;20019;-74
2021/07/16 04:14:36;;;;;;;9.18;2.58;;;;;;;;;;6244640;23;20036;-74
2021/07/16 04:17:04;;;;;;;4.00;2.50;;;;;;;;;;6244675;23;20003;-72
2021/07/16 04:19:31;;;;;;;5.32;2.28;;;;;;;;;;6244618;23;20035;-72
2021/07/16 04:21:57;;;;;;;4.80;2.70;;;;;;;;;;6246522;23;20004;-71
2021/07/16 04:24:23;;;;;;;6.70;2.38;;;;;;;;;;6246438;23;20070;-72
2021/07/16 04:26:49;;;;;;;5.28;2.35;;;;;;;;;;6244555;23;20004;-72
2021/07/16 04:29:16;;;;;;;4.25;1.95;;;;;;;;;;6246515;23;20008;-71
2021/07/16 04:31:42;;;;;;;4.82;2.13;;;;;;;;;;6246300;23;20004;-72
2021/07/16 04:34:08;;;;;;;2.95;1.63;;;;;;;;;;6246249;23;20011;-72
2021/07/16 04:36:35;;;;;;;3.67;1.73;;;;;;;;;;6246729;23;20012;-70
2021/07/16 04:39:01;;;;;;;3.60;1.60;;;;;;;;;;6219348;23;20013;-72
2021/07/16 04:41:27;;;;;;;3.80;1.67;;;;;;;;;;6219298;23;20047;-70
2021/07/16 04:43:55;;;;;;;2.95;1.50;;;;;;;;;;6219195;23;20011;-72
2021/07/16 04:46:22;;;;;;;5.35;1.70;;;;;;;;;;6219157;23;20027;-71
2021/07/16 04:48:48;;;;;;;3.58;1.50;;;;;;;;;;6245917;23;20004;-72
2021/07/16 04:51:24;;;;;;;3.75;1.50;;;;;;;;;;6218991;23;20028;-72
2021/07/16 04:53:53;;;;;;;3.30;1.58;;;;;;;;;;6219275;23;20372;-72
2021/07/16 04:56:20;;;;;;;3.42;1.55;;;;;;;;;;6219116;23;20008;-72
2021/07/16 04:58:46;;;;;;;4.97;1.50;;;;;;;;;;6246283;23;20012;-72
2021/07/16 05:01:13;;;;;;;1.98;1.30;;;;;;;;;;6245947;23;20001;-72
2021/07/16 05:03:39;;;;;;;2.58;1.52;;;;;;;;;;6246942;23;20032;-72
2021/07/16 05:06:05;;;;;;;2.22;1.10;;;;;;;;;;6247313;23;20098;-72
2021/07/16 05:08:32;;;;;;;2.50;1.30;;;;;;;;;;6248811;23;20022;-72
2021/07/16 05:10:58;;;;;;;4.47;1.60;;;;;;;;;;6247781;23;20000;-72
2021/07/16 05:13:26;;;;;;;1.90;0.90;;;;;;;;;;6220586;23;20384;-72
2021/07/16 05:15:52;;;;;;;2.95;1.58;;;;;;;;;;6219758;23;20440;-72
2021/07/16 05:18:18;;;;;;;2.50;1.27;;;;;;;;;;6247471;23;20069;-73
2021/07/16 05:20:45;;;;;;;1.67;1.20;;;;;;;;;;6220706;23;20457;-73
2021/07/16 05:23:11;;;;;;;3.03;1.20;;;;;;;;;;6220527;23;20056;-72
2021/07/16 05:25:39;;;;;;;4.38;1.58;;;;;;;;;;6220409;23;20394;-72
2021/07/16 05:28:05;;;;;;;1.95;1.20;;;;;;;;;;6248283;23;20004;-72
2021/07/16 05:30:31;;;;;;;2.00;1.15;;;;;;;;;;6219956;23;20008;-72
2021/07/16 05:32:57;;;;;;;2.25;1.35;;;;;;;;;;6220434;23;20145;-72
2021/07/16 05:35:23;;;;;;;2.47;1.17;;;;;;;;;;6232825;23;20429;-72
2021/07/16 05:37:49;;;;;;;4.10;1.35;;;;;;;;;;6245938;23;20015;-71
2021/07/16 05:40:16;;;;;;;3.03;1.27;;;;;;;;;;6247004;23;20008;-68
2021/07/16 05:42:42;;;;;;;2.78;1.45;;;;;;;;;;6245923;23;20302;-68
2021/07/16 05:45:08;;;;;;;1.85;1.13;;;;;;;;;;6247497;23;20004;-67
2021/07/16 05:47:34;;;;;;;2.38;1.20;;;;;;;;;;6245947;23;20001;-67
2021/07/16 05:50:01;;;;;;;2.10;1.23;;;;;;;;;;6245523;23;20008;-72
2021/07/16 05:52:28;;;;;;;7.60;1.50;;;;;;;;;;6245528;23;20050;-72
2021/07/16 05:54:54;;;;;;;3.22;1.42;;;;;;;;;;6245769;23;20329;-75
2021/07/16 05:57:21;;;;;;;3.25;1.52;;;;;;;;;;6246753;23;20008;-68
2021/07/16 05:59:47;;;;;;;6.80;1.77;;;;;;;;;;6247343;23;20008;-69
2021/07/16 06:02:13;;;;;;;7.57;1.45;;;;;;;;;;6245723;23;20008;-71
2021/07/16 06:04:39;;;;;;;2.13;1.15;;;;;;;;;;6247281;23;20405;-67
2021/07/16 06:07:05;;;;;;;6.50;1.38;;;;;;;;;;6245348;23;20012;-65
2021/07/16 06:09:31;;;;;;;5.18;1.50;;;;;;;;;;6247466;23;20432;-65
2021/07/16 06:11:58;;;;;;;2.00;1.15;;;;;;;;;;6245389;23;20034;-65
2021/07/16 06:14:24;;;;;;;2.30;1.20;;;;;;;;;;6247292;23;20330;-66
2021/07/16 06:16:50;;;;;;;2.42;1.10;;;;;;;;;;6245162;23;20008;-66
2021/07/16 06:19:19;;;;;;;1.70;1.10;;;;;;;;;;6247131;23;20063;-66
2021/07/16 06:21:46;;;;;;;2.20;1.10;;;;;;;;;;6247163;23;20000;-65
2021/07/16 06:24:12;;;;;;;1.65;0.80;;;;;;;;;;6246836;23;20086;-65
2021/07/16 06:26:38;;;;;;;2.40;1.23;;;;;;;;;;6245505;23;20008;-65
2021/07/16 06:29:05;;;;;;;2.42;1.17;;;;;;;;;;6245284;23;20004;-67
2021/07/16 06:31:31;;;;;;;3.90;1.30;;;;;;;;;;6244946;23;20079;-66
2021/07/16 06:33:57;;;;;;;2.58;1.20;;;;;;;;;;6245328;23;20015;-66
2021/07/16 06:36:23;;;;;;;7.45;1.15;;;;;;;;;;6247301;23;20012;-65
2021/07/16 06:38:50;;;;;;;2.92;1.05;;;;;;;;;;6219811;23;20491;-76
2021/07/16 06:41:16;;;;;;;2.60;1.00;;;;;;;;;;6220052;23;20012;-77
2021/07/16 06:43:44;;;;;;;3.25;1.13;;;;;;;;;;6247201;23;20035;-76
2021/07/16 06:46:12;;;;;;;6.38;1.48;;;;;;;;;;6219983;23;20054;-76
2021/07/16 06:48:42;;;;;;;3.95;1.85;;;;;;;;;;6219992;23;20004;-65
2021/07/16 06:51:08;;;;;;;1.90;1.00;;;;;;;;;;6219984;23;20031;-65
2021/07/16 06:53:35;;;;;;;2.10;1.10;;;;;;;;;;6246558;23;20008;-63
2021/07/16 06:56:01;;;;;;;3.95;1.27;;;;;;;;;;6219670;23;20000;-65
2021/07/16 06:58:27;;;;;;;2.78;1.33;;;;;;;;;;6247070;23;20030;-65
2021/07/16 07:00:53;;;;;;;1.60;1.17;;;;;;;;;;6246382;23;20007;-65
2021/07/16 07:03:19;;;;;;;3.28;1.30;;;;;;;;;;6246615;23;20027;-66
2021/07/16 07:05:45;;;;;;;5.20;1.33;;;;;;;;;;6246586;23;20001;-72
2021/07/16 07:08:11;;;;;;;2.22;1.27;;;;;;;;;;6246703;23;20007;-69
2021/07/16 07:10:37;;;;;;;2.17;0.90;;;;;;;;;;6219814;23;20004;-65
2021/07/16 07:13:05;;;;;;;2.22;1.08;;;;;;;;;;6219285;23;20012;-65
2021/07/16 07:15:31;;;;;;;2.10;0.90;;;;;;;;;;6219388;23;20004;-70
2021/07/16 07:17:57;;;;;;;1.73;0.90;;;;;;;;;;6219753;23;20456;-65
2021/07/16 07:20:23;;;;;;;2.35;1.20;;;;;;;;;;6219401;23;20044;-66
2021/07/16 07:22:49;;;;;;;2.50;1.00;;;;;;;;;;6219115;23;20095;-73
2021/07/16 07:25:15;;;;;;;2.13;1.10;;;;;;;;;;6219178;23;20448;-75
2021/07/16 07:27:42;;;;;;;2.97;1.08;;;;;;;;;;6219204;23;20429;-75
2021/07/16 07:30:08;;;;;;;2.10;1.05;;;;;;;;;;6219396;23;20008;-75
2021/07/16 07:32:34;;;;;;;2.33;1.08;;;;;;;;;;6246125;23;20012;-75
2021/07/16 07:35:00;;;;;;;2.15;1.00;;;;;;;;;;6246427;23;20035;-75
2021/07/16 07:37:27;;;;;;;1.80;0.90;;;;;;;;;;6219485;23;20012;-75
2021/07/16 07:39:53;;;;;;;2.90;1.00;;;;;;;;;;6246082;23;20046;-74
2021/07/16 07:42:21;;;;;;;1.60;1.00;;;;;;;;;;6219606;23;20012;-73
2021/07/16 07:44:47;;;;;;;1.95;0.90;;;;;;;;;;6246660;23;20027;-75
2021/07/16 07:47:13;;;;;;;2.58;1.20;;;;;;;;;;6219478;23;20429;-75
2021/07/16 07:49:40;;;;;;;1.67;1.02;;;;;;;;;;6246078;23;20036;-65
2021/07/16 07:52:07;;;;;;;1.80;0.93;;;;;;;;;;6246452;23;20340;-65
2021/07/16 07:54:33;;;;;;;2.05;1.02;;;;;;;;;;6219366;23;20078;-65
2021/07/16 07:56:59;;;;;;;1.98;1.00;;;;;;;;;;6246178;23;20008;-65
2021/07/16 07:59:25;;;;;;;5.53;1.10;;;;;;;;;;6219465;23;20011;-65
2021/07/16 08:01:51;;;;;;;1.17;0.85;;;;;;;;;;6246635;23;20004;-65
2021/07/16 08:04:18;;;;;;;4.22;1.13;;;;;;;;;;6246162;23;20006;-65
2021/07/16 08:06:44;;;;;;;1.23;0.82;;;;;;;;;;6219057;23;20083;-65
2021/07/16 08:09:10;;;;;;;4.53;1.10;;;;;;;;;;6219091;23;20022;-66
2021/07/16 08:11:37;;;;;;;1.35;0.85;;;;;;;;;;6245865;23;20369;-66
2021/07/16 08:14:03;;;;;;;1.40;0.70;;;;;;;;;;6246105;23;20076;-65
2021/07/16 08:16:29;;;;;;;1.60;0.93;;;;;;;;;;6246290;23;20430;-65
2021/07/16 08:18:55;;;;;;;4.38;1.20;;;;;;;;;;6194142;23;20307;-66
2021/07/16 08:21:22;;;;;;;2.90;0.95;;;;;;;;;;6245962;23;20004;-65
2021/07/16 08:23:48;;;;;;;3.25;1.00;;;;;;;;;;6246188;23;20007;-65
2021/07/16 08:26:15;;;;;;;3.45;1.00;;;;;;;;;;6219250;23;20342;-67
2021/07/16 08:28:41;;;;;;;4.88;1.13;;;;;;;;;;6245823;23;20001;-65
2021/07/16 08:31:07;;;;;;;2.33;1.00;;;;;;;;;;6245651;23;20004;-65
2021/07/16 08:33:34;;;;;;;1.75;1.00;;;;;;;;;;6218695;23;20016;-65
2021/07/16 08:36:00;;;;;;;2.58;0.70;;;;;;;;;;6239114;23;20024;-65
2021/07/16 08:38:26;;;;;;;4.22;1.42;;;;;;;;;;6245924;23;20000;-65
2021/07/16 08:40:52;;;;;;;2.10;0.90;;;;;;;;;;6247868;23;20410;-65
2021/07/16 08:43:20;;;;;;;2.55;1.02;;;;;;;;;;6246265;23;20011;-65
2021/07/16 08:45:47;;;;;;;1.63;0.90;;;;;;;;;;6246100;23;20441;-65
2021/07/16 08:48:14;;;;;;;5.35;1.52;;;;;;;;;;6247705;23;20000;-65
2021/07/16 08:50:41;;;;;;;1.20;0.70;;;;;;;;;;6246204;23;20012;-65
2021/07/16 08:53:07;;;;;;;2.67;1.05;;;;;;;;;;6247371;23;20016;-65
2021/07/16 08:55:36;;;;;;;3.90;1.50;;;;;;;;;;6245767;23;20000;-65
2021/07/16 08:58:05;;;;;;;1.85;1.20;;;;;;;;;;6246299;23;20008;-65
2021/07/16 09:00:32;;;;;;;2.83;1.13;;;;;;;;;;6246380;23;20000;-66
2021/07/16 09:02:59;;;;;;;1.75;1.05;;;;;;;;;;6246188;23;20032;-67
2021/07/16 09:05:36;;;;;;;1.95;1.02;;;;;;;;;;6247501;23;20425;-65
2021/07/16 09:08:03;;;;;;;2.03;1.20;;;;;;;;;;6246084;23;20433;-66
2021/07/16 09:10:30;;;;;;;2.72;1.13;;;;;;;;;;6248187;23;20008;-66
2021/07/16 09:12:58;;;;;;;2.08;1.00;;;;;;;;;;6247243;23;20016;-63
2021/07/16 09:15:24;;;;;;;3.35;0.90;;;;;;;;;;6247522;23;19996;-64
2021/07/16 09:17:53;;;;;;;2.20;0.90;;;;;;;;;;6247820;23;20477;-67
2021/07/16 09:20:26;;;;;;;4.57;0.80;;;;;;;;;;6246155;23;20341;-62
2021/07/16 09:23:11;;;;;;;2.05;1.10;;;;;;;;;;6247729;23;20004;-65
2021/07/16 09:25:38;;;;;;;2.42;1.10;;;;;;;;;;6247718;23;19996;-63
2021/07/16 09:28:05;;;;;;;2.95;1.10;;;;;;;;;;6246141;23;20083;-64
2021/07/16 09:30:31;;;;;;;3.50;1.15;;;;;;;;;;6246112;23;20337;-63
2021/07/16 09:33:02;;;;;;;2.70;1.05;;;;;;;;;;6245805;23;20016;-63
2021/07/16 09:35:28;;;;;;;;;;;;;;;;;;6247968;23;20486;-64
2021/07/16 09:38:00;;;;;;;6.13;1.38;;;;;;;;;;6246388;23;20345;-64
2021/07/16 09:40:26;;;;;;;;;;;;;;;;;;6248207;23;20023;-65
2021/07/16 09:42:59;;;;;;;2.42;1.05;;;;;;;;;;6220503;23;19906;-66
2021/07/16 09:45:25;;;;;;;4.18;1.23;;;;;;;;;;6247439;23;20374;-66
2021/07/16 09:47:51;;;;;;;2.75;1.00;;;;;;;;;;6195564;23;20337;-64
2021/07/16 09:50:20;;;;;;;5.38;0.95;;;;;;;;;;6247703;23;20019;-65
2021/07/16 09:52:47;;;;;;;2.83;1.13;;;;;;;;;;6220139;23;20012;-65
2021/07/16 09:55:18;;;;;;;3.20;1.27;;;;;;;;;;6220538;23;20007;-64
2021/07/16 09:57:52;;;;;;;2.72;0.90;;;;;;;;;;6220420;23;20016;-66
2021/07/16 10:00:19;;;;;;;1.77;0.80;;;;;;;;;;6220307;23;20050;-68
2021/07/16 10:02:49;;;;;;;1.98;1.08;;;;;;;;;;6220215;23;20015;-66
2021/07/16 10:05:15;;;;;;;4.45;1.05;;;;;;;;;;6220425;23;20000;-66
2021/07/16 10:07:42;;;;;;;2.75;1.20;;;;;;;;;;6220329;23;20333;-65
2021/07/16 10:10:15;;;;;;;1.77;0.90;;;;;;;;;;6220292;23;20004;-68
2021/07/16 10:12:42;;;;;;;1.30;0.90;;;;;;;;;;6246833;23;20058;-65
2021/07/16 10:15:10;;;;;;;2.10;0.90;;;;;;;;;;6247858;23;20016;-68
2021/07/16 10:17:36;;;;;;;1.48;0.80;;;;;;;;;;6247199;23;20007;-66
2021/07/16 10:20:03;;;;;;;1.67;0.82;;;;;;;;;;6220339;23;20083;-66
2021/07/16 10:22:30;;;;;;;2.38;0.80;;;;;;;;;;6220219;23;20015;-64
2021/07/16 10:24:56;;;;;;;2.03;0.90;;;;;;;;;;6246966;23;20003;-67
2021/07/16 10:27:22;;;;;;;1.45;0.90;;;;;;;;;;6220159;23;20421;-68
2021/07/16 10:29:49;;;;;;;2.95;1.10;;;;;;;;;;6220070;23;20472;-66
2021/07/16 10:32:34;;;;;;;2.03;0.90;;;;;;;;;;6219989;23;20408;-65
2021/07/16 10:35:13;;;;;;;1.98;1.00;;;;;;;;;;6227659;23;20046;-67
2021/07/16 10:37:40;;;;;;;1.67;1.08;;;;;;;;;;6246389;23;20012;-66
2021/07/16 10:40:06;;;;;;;1.92;1.15;;;;;;;;;;6245034;23;20008;-67
2021/07/16 10:42:35;;;;;;;6.10;1.40;;;;;;;;;;6245178;23;20000;-66
2021/07/16 10:45:04;;;;;;;1.95;1.02;;;;;;;;;;6245295;23;20004;-66
2021/07/16 10:47:33;;;;;;;2.78;1.10;;;;;;;;;;6244849;23;20333;-66
2021/07/16 10:50:00;;;;;;;2.85;1.10;;;;;;;;;;6247486;23;20008;-66
2021/07/16 10:52:42;;;;;;;6.13;0.95;;;;;;;;;;6245184;23;20022;-67
2021/07/16 10:55:09;;;;;;;3.55;1.35;;;;;;;;;;6246721;23;20325;-66
2021/07/16 10:57:40;;;;;;;1.70;0.90;;;;;;;;;;6245296;23;20004;-64
2021/07/16 11:00:08;;;;;;;2.03;1.00;;;;;;;;;;6246793;23;19996;-64
2021/07/16 11:02:47;;;;;;;4.32;1.20;;;;;;;;;;6246217;23;20027;-65
2021/07/16 11:05:46;;;;;;;2.15;1.13;;;;;;;;;;6245277;23;20047;-65
2021/07/16 11:08:32;;;;;;;2.17;1.35;;;;;;;;;;6163979;23;20011;-65
2021/07/16 11:11:06;;;;;;;5.13;1.55;;;;;;;;;;6244917;23;20007;-63
2021/07/16 11:13:50;;;;;;;3.42;1.20;;;;;;;;;;6246337;23;20012;-66
2021/07/16 11:16:24;;;;;;;1.98;1.05;;;;;;;;;;6245020;23;20071;-65
2021/07/16 11:19:03;;;;;;;2.40;1.30;;;;;;;;;;6245133;23;20031;-64
2021/07/16 11:21:49;;;;;;;2.10;1.23;;;;;;;;;;6245030;23;20452;-64
2021/07/16 11:24:18;;;;;;;6.15;1.48;;;;;;;;;;6247296;23;19996;-64
2021/07/16 11:26:52;;;;;;;8.15;1.30;;;;;;;;;;6246597;23;20050;-69
2021/07/16 11:29:19;;;;;;;3.22;1.10;;;;;;;;;;6246446;23;20004;-64
2021/07/16 11:31:45;;;;;;;2.35;1.02;;;;;;;;;;6246687;23;20000;-64
2021/07/16 11:34:15;;;;;;;2.50;1.33;;;;;;;;;;6245989;23;20011;-64
2021/07/16 11:36:51;;;;;;;6.53;1.40;;;;;;;;;;6247136;23;20000;-68
2021/07/16 11:39:27;;;;;;;3.03;0.90;;;;;;;;;;6246450;23;20071;-67
2021/07/16 11:41:53;;;;;;;3.03;1.17;;;;;;;;;;6246306;23;20004;-65
2021/07/16 11:44:30;;;;;;;2.25;1.25;;;;;;;;;;6219435;23;20015;-69
2021/07/16 11:46:57;;;;;;;4.60;1.15;;;;;;;;;;6246368;23;20062;-65
2021/07/16 11:49:23;;;;;;;2.67;1.20;;;;;;;;;;6245819;23;20024;-69
2021/07/16 11:51:56;;;;;;;3.40;1.23;;;;;;;;;;6219241;23;20083;-65
2021/07/16 11:54:24;;;;;;;1.88;1.02;;;;;;;;;;6246160;23;20074;-64
2021/07/16 11:56:53;;;;;;;3.08;1.27;;;;;;;;;;6245863;23;20008;-66
2021/07/16 11:59:23;;;;;;;2.17;1.30;;;;;;;;;;6219039;23;20678;-64
2021/07/16 12:02:09;;;;;;;1.90;1.00;;;;;;;;;;6246126;23;20008;-64
2021/07/16 12:04:39;;;;;;;2.50;1.27;;;;;;;;;;6246068;23;20059;-64
2021/07/16 12:07:06;;;;;;;2.92;1.35;;;;;;;;;;6219263;23;20075;-65
2021/07/16 12:09:33;;;;;;;2.35;1.30;;;;;;;;;;6245881;23;20010;-67
2021/07/16 12:12:03;;;;;;;3.75;1.35;;;;;;;;;;6245455;23;20368;-66
2021/07/16 12:14:29;;;;;;;2.40;1.23;;;;;;;;;;6219971;23;20525;-65
2021/07/16 12:16:55;;;;;;;3.35;1.20;;;;;;;;;;6248076;23;20000;-67
2021/07/16 12:19:22;;;;;;;2.38;1.30;;;;;;;;;;6221022;23;20746;-65
2021/07/16 12:21:48;;;;;;;1.65;1.30;;;;;;;;;;6247287;23;20334;-70
2021/07/16 12:24:15;;;;;;;2.80;1.13;;;;;;;;;;6220723;23;20000;-66
2021/07/16 12:26:41;;;;;;;8.63;1.40;;;;;;;;;;6220905;23;20043;-67
2021/07/16 12:29:09;;;;;;;4.72;1.48;;;;;;;;;;6247845;23;20004;-70
2021/07/16 12:31:36;;;;;;;4.22;1.40;;;;;;;;;;6248181;23;20050;-65
2021/07/16 12:34:03;;;;;;;2.38;1.13;;;;;;;;;;6220859;23;20091;-65
2021/07/16 12:36:32;;;;;;;3.13;1.33;;;;;;;;;;6248258;23;20008;-68
2021/07/16 12:38:58;;;;;;;3.63;1.40;;;;;;;;;;6247779;23;20008;-65
2021/07/16 12:41:25;;;;;;;2.75;1.48;;;;;;;;;;6248150;23;20007;-65
2021/07/16 12:43:51;;;;;;;2.70;0.98;;;;;;;;;;6248234;23;20004;-66
2021/07/16 12:46:44;;;;;;;4.72;1.52;;;;;;;;;;6221800;23;20011;-72
2021/07/16 12:49:12;;;;;;;1.48;0.90;;;;;;;;;;6242005;23;20039;-72
2021/07/16 12:51:46;;;;;;;4.72;1.00;;;;;;;;;;6246459;23;20448;-72
2021/07/16 12:54:21;;;;;;;2.72;1.10;;;;;;;;;;6246377;23;20380;-69
2021/07/16 12:56:48;;;;;;;5.93;1.27;;;;;;;;;;6246519;23;20006;-70
2021/07/16 12:59:23;;;;;;;5.38;1.20;;;;;;;;;;6219697;23;20027;-68
2021/07/16 13:01:53;;;;;;;5.75;1.20;;;;;;;;;;6244539;23;20429;-69
2021/07/16 13:04:31;;;;;;;2.50;1.23;;;;;;;;;;6246044;23;20000;-70
2021/07/16 13:06:58;;;;;;;4.00;1.50;;;;;;;;;;6220067;23;20043;-69
2021/07/16 13:09:25;;;;;;;1.98;1.30;;;;;;;;;;6246412;23;20007;-71
2021/07/16 13:12:00;;;;;;;3.38;1.42;;;;;;;;;;6246684;23;20011;-69
2021/07/16 13:14:27;;;;;;;3.08;1.30;;;;;;;;;;6245956;23;20042;-69
2021/07/16 13:17:22;;;;;;;5.20;1.50;;;;;;;;;;6246163;23;20303;-71
2021/07/16 13:19:54;;;;;;;2.00;1.15;;;;;;;;;;6218603;23;20053;-70
2021/07/16 13:22:20;;;;;;;2.20;1.33;;;;;;;;;;6220439;23;20086;-72
2021/07/16 13:24:48;;;;;;;3.38;1.20;;;;;;;;;;6219459;23;20001;-69
2021/07/16 13:27:14;;;;;;;2.95;1.33;;;;;;;;;;6219520;23;20429;-71
2021/07/16 13:29:40;;;;;;;2.55;1.40;;;;;;;;;;6247334;23;20000;-70
2021/07/16 13:32:07;;;;;;;3.42;1.65;;;;;;;;;;6220592;23;20030;-70
2021/07/16 13:34:33;;;;;;;2.47;1.42;;;;;;;;;;6222526;23;20012;-72
2021/07/16 13:36:59;;;;;;;2.65;1.33;;;;;;;;;;6247460;23;20536;-70
2021/07/16 13:39:25;;;;;;;4.72;1.35;;;;;;;;;;6245850;23;20119;-74
2021/07/16 13:41:51;;;;;;;2.53;1.40;;;;;;;;;;6247521;23;19996;-72
2021/07/16 13:44:17;;;;;;;2.88;1.30;;;;;;;;;;6246010;23;20474;-72
2021/07/16 13:46:44;;;;;;;5.03;1.40;;;;;;;;;;6245784;23;20043;-71
2021/07/16 13:49:10;;;;;;;3.92;1.23;;;;;;;;;;6247238;23;20008;-71
2021/07/16 13:51:36;;;;;;;4.25;1.40;;;;;;;;;;6247167;23;20008;-71
2021/07/16 13:54:03;;;;;;;6.00;1.35;;;;;;;;;;6247452;23;20007;-72
2021/07/16 13:56:30;;;;;;;2.55;1.20;;;;;;;;;;6247376;23;20330;-68
2021/07/16 13:58:56;;;;;;;1.88;1.08;;;;;;;;;;6245725;23;20008;-68
2021/07/16 14:01:23;;;;;;;4.50;1.40;;;;;;;;;;6245655;23;20004;-68
2021/07/16 14:03:50;;;;;;;4.30;1.30;;;;;;;;;;6245592;23;20011;-67
2021/07/16 14:06:16;;;;;;;2.15;1.25;;;;;;;;;;6245642;23;20000;-67
2021/07/16 14:08:42;;;;;;;2.97;1.38;;;;;;;;;;6245686;23;20004;-68
2021/07/16 14:11:08;;;;;;;4.82;1.42;;;;;;;;;;6245390;23;20023;-68
2021/07/16 14:13:34;;;;;;;4.82;1.67;;;;;;;;;;6245145;23;20070;-69
2021/07/16 14:16:01;;;;;;;5.75;1.40;;;;;;;;;;6245379;23;20032;-69
2021/07/16 14:18:27;;;;;;;5.25;1.67;;;;;;;;;;6244903;23;20426;-69
2021/07/16 14:20:53;;;;;;;2.90;1.65;;;;;;;;;;6247135;23;20004;-68
2021/07/16 14:23:19;;;;;;;2.53;1.50;;;;;;;;;;6245548;23;20079;-69
2021/07/16 14:25:45;;;;;;;4.45;1.52;;;;;;;;;;6247079;23;20004;-67
2021/07/16 14:28:12;;;;;;;3.38;1.58;;;;;;;;;;6245555;23;20001;-68
2021/07/16 14:30:38;;;;;;;5.25;1.48;;;;;;;;;;6247074;23;20041;-68
2021/07/16 14:33:05;;;;;;;2.60;1.65;;;;;;;;;;6246866;23;20012;-68
2021/07/16 14:35:31;;;;;;;4.53;1.70;;;;;;;;;;6246844;23;20008;-69
2021/07/16 14:37:58;;;;;;;9.00;1.70;;;;;;;;;;6246857;23;20032;-68
2021/07/16 14:40:24;;;;;;;3.75;1.50;;;;;;;;;;6220145;23;20337;-68
2021/07/16 14:42:51;;;;;;;3.03;1.80;;;;;;;;;;6246855;23;20004;-69
2021/07/16 14:45:17;;;;;;;2.20;1.48;;;;;;;;;;6247204;23;20000;-69
2021/07/16 14:47:49;;;;;;;4.00;1.70;;;;;;;;;;6246873;23;20004;-68